createdAt,value
2023-01-27T06:50:16.903Z,-1.30
2023-01-27T06:53:18.991Z,-1.10
2023-01-27T06:56:20.776Z,-0.60
2023-01-27T06:59:22.796Z,-0.40
2023-01-27T07:02:24.718Z,-0.20
2023-01-27T07:05:26.926Z,-0.20
2023-01-27T07:08:28.913Z,-0.10
2023-01-27T07:11:31.743Z,-0.10
2023-01-27T07:14:34.187Z,-0.10
2023-01-27T07:17:36.554Z,-0.10
2023-01-27T07:20:39.248Z,-0.20
2023-01-27T07:23:41.782Z,-0.10
2023-01-27T07:26:45.193Z,0.00
2023-01-27T07:29:46.960Z,0.00
2023-01-27T07:32:50.229Z,0.00
2023-01-27T07:35:52.438Z,-0.10
2023-01-27T07:38:54.184Z,-0.10
2023-01-27T07:41:57.543Z,-0.20
2023-01-27T07:44:59.222Z,-0.20
2023-01-27T07:48:02.628Z,-0.10
2023-01-27T07:51:04.467Z,-0.20
2023-01-27T07:54:06.800Z,-0.20
2023-01-27T07:57:08.532Z,-0.20
2023-01-27T08:00:15.471Z,0.00
2023-01-27T08:03:23.032Z,-0.10
2023-01-27T08:06:25.054Z,0.00
2023-01-27T08:09:26.742Z,0.00
2023-01-27T08:12:28.492Z,0.10
2023-01-27T08:15:30.293Z,0.10
2023-01-27T08:18:33.881Z,0.00
2023-01-27T08:21:35.982Z,-0.10
2023-01-27T08:24:37.745Z,-0.20
2023-01-27T08:27:39.433Z,-0.20
2023-01-27T08:30:41.528Z,-0.20
2023-01-27T08:33:45.818Z,-0.10
2023-01-27T08:36:47.680Z,0.10
2023-01-27T08:39:49.388Z,0.20
2023-01-27T08:42:51.249Z,0.30
2023-01-27T08:45:53.245Z,0.40
2023-01-27T08:48:55.157Z,0.40
2023-01-27T08:51:57.008Z,0.40
2023-01-27T08:54:58.961Z,0.50
2023-01-27T08:58:00.948Z,0.30
2023-01-27T09:01:05.808Z,0.20
2023-01-27T09:04:09.320Z,0.30
2023-01-27T09:07:12.300Z,0.30
2023-01-27T09:10:16.959Z,0.30
2023-01-27T09:13:22.774Z,0.30
2023-01-27T09:16:25.267Z,0.20
2023-01-27T09:19:27.407Z,0.20
2023-01-27T09:22:31.319Z,0.10
2023-01-27T09:25:34.035Z,0.00
2023-01-27T09:28:36.351Z,-0.20
2023-01-27T09:31:38.360Z,-0.20
2023-01-27T09:34:40.617Z,-0.10
2023-01-27T09:37:47.345Z,-0.10
2023-01-27T09:41:29.237Z,-0.10
2023-01-27T09:44:54.658Z,-0.20
2023-01-27T09:48:26.063Z,-0.10
2023-01-27T09:51:53.838Z,0.00
2023-01-27T09:55:21.944Z,0.10
2023-01-27T09:58:51.875Z,0.20
2023-01-27T10:02:21.098Z,0.40
2023-01-27T10:06:04.173Z,0.40
2023-01-27T10:09:40.736Z,0.30
2023-01-27T10:13:16.055Z,0.30
2023-01-27T10:16:37.398Z,0.40
2023-01-27T10:20:06.855Z,0.50
2023-01-27T10:23:32.489Z,0.50
2023-01-27T10:26:41.041Z,0.60
2023-01-27T10:29:47.508Z,0.70
2023-01-27T10:33:09.078Z,0.90
2023-01-27T10:36:24.557Z,1.10
2023-01-27T10:39:47.103Z,1.40
2023-01-27T10:43:25.590Z,1.40
2023-01-27T10:46:55.302Z,1.40
2023-01-27T10:50:03.395Z,1.30
2023-01-27T10:53:35.199Z,1.00
2023-01-27T10:56:59.820Z,1.00
2023-01-27T11:03:52.281Z,1.00
2023-01-27T11:06:55.943Z,1.10
2023-01-27T11:10:01.605Z,0.90
2023-01-27T11:13:05.567Z,0.80
2023-01-27T11:16:16.175Z,0.90
2023-01-27T11:19:52.823Z,0.80
2023-01-27T11:23:04.384Z,0.70
2023-01-27T11:26:23.578Z,0.60
2023-01-27T11:29:36.040Z,0.60
2023-01-27T11:32:54.796Z,0.50
2023-01-27T11:35:56.579Z,0.60
2023-01-27T11:38:59.049Z,0.60
2023-01-27T11:42:00.837Z,0.60
2023-01-27T11:45:02.915Z,0.60
2023-01-27T11:48:08.060Z,0.60
2023-01-27T11:51:22.873Z,0.60
2023-01-27T11:54:27.734Z,0.80
2023-01-27T11:57:29.556Z,1.00
2023-01-27T12:00:44.145Z,1.00
2023-01-27T12:03:57.281Z,1.00
2023-01-27T12:07:05.645Z,0.80
2023-01-27T12:10:24.270Z,0.70
2023-01-27T12:13:26.403Z,0.70
2023-01-27T12:16:50.204Z,0.80
2023-01-27T12:19:55.904Z,1.00
2023-01-27T12:23:01.572Z,1.10
2023-01-27T12:26:11.961Z,1.20
2023-01-27T12:29:20.108Z,1.30
2023-01-27T12:32:34.263Z,1.40
2023-01-27T12:35:37.184Z,1.40
2023-01-27T12:38:45.761Z,1.10
2023-01-27T12:41:47.538Z,1.10
2023-01-27T12:44:49.336Z,1.00
2023-01-27T12:48:13.387Z,1.10
2023-01-27T12:51:20.921Z,1.00
2023-01-27T12:54:27.391Z,1.00
2023-01-27T12:57:32.567Z,1.00
2023-01-27T13:00:34.660Z,1.00
2023-01-27T13:03:40.504Z,0.90
2023-01-27T13:06:55.206Z,0.80
2023-01-27T13:10:02.985Z,0.80
2023-01-27T13:13:05.668Z,0.80
2023-01-27T13:16:22.527Z,0.80
2023-01-27T13:19:43.019Z,1.00
2023-01-27T13:22:58.231Z,1.00
2023-01-27T13:26:20.161Z,1.00
2023-01-27T13:29:27.002Z,1.00
2023-01-27T13:32:33.674Z,1.00
2023-01-27T13:35:41.758Z,0.90
2023-01-27T13:38:52.588Z,1.00
2023-01-27T13:42:16.120Z,1.10
2023-01-27T13:45:23.218Z,0.90
2023-01-27T13:48:31.677Z,1.00
2023-01-27T13:51:33.713Z,1.00
2023-01-27T13:54:35.426Z,1.20
2023-01-27T13:57:52.241Z,1.40
2023-01-27T14:01:10.500Z,1.30
2023-01-27T14:04:39.067Z,1.30
2023-01-27T14:07:54.031Z,1.40
2023-01-27T14:11:12.990Z,1.50
2023-01-27T14:14:58.527Z,1.40
2023-01-27T14:18:14.654Z,1.30
2023-01-27T14:21:45.652Z,1.20
2023-01-27T14:24:59.972Z,1.20
2023-01-27T14:28:28.530Z,1.30
2023-01-27T14:31:57.139Z,1.10
2023-01-27T14:35:30.409Z,1.10
2023-01-27T14:38:39.752Z,1.10
2023-01-27T14:41:54.491Z,1.20
2023-01-27T14:45:06.035Z,1.20
2023-01-27T14:48:37.616Z,1.20
2023-01-27T14:51:46.979Z,1.20
2023-01-27T14:55:03.302Z,1.20
2023-01-27T14:58:28.360Z,1.10
2023-01-27T15:01:39.627Z,1.10
2023-01-27T15:04:54.732Z,1.30
2023-01-27T15:08:07.641Z,1.30
2023-01-27T15:11:49.295Z,1.20
2023-01-27T15:15:07.072Z,1.10
2023-01-27T15:18:39.608Z,1.20
2023-01-27T15:21:48.921Z,1.10
2023-01-27T15:25:33.179Z,1.10
2023-01-27T15:28:40.327Z,1.20
2023-01-27T15:31:43.120Z,1.00
2023-01-27T15:34:51.415Z,1.00
2023-01-27T15:38:08.360Z,1.00
2023-01-27T15:41:14.701Z,1.20
2023-01-27T15:44:30.428Z,1.10
2023-01-27T15:47:35.510Z,1.10
2023-01-27T15:50:38.396Z,1.10
2023-01-27T15:53:45.224Z,1.20
2023-01-27T15:56:51.291Z,1.30
2023-01-27T15:59:59.204Z,1.40
2023-01-27T16:03:03.362Z,1.30
2023-01-27T16:06:09.705Z,1.30
2023-01-27T16:09:23.691Z,1.30
2023-01-27T16:12:27.060Z,1.30
2023-01-27T16:15:30.767Z,1.30
2023-01-27T16:18:51.967Z,1.30
2023-01-27T16:21:58.371Z,1.40
2023-01-27T16:25:17.394Z,1.30
2023-01-27T16:28:26.321Z,1.30
2023-01-27T16:31:30.073Z,1.30
2023-01-27T16:34:36.094Z,1.40
2023-01-27T16:37:39.482Z,1.40
2023-01-27T16:40:48.459Z,1.30
2023-01-27T16:43:58.067Z,1.40
2023-01-27T16:47:16.085Z,1.40
2023-01-27T16:50:40.454Z,1.40
2023-01-27T16:53:47.253Z,1.50
2023-01-27T16:56:51.482Z,1.40
2023-01-27T16:59:53.718Z,1.30
